Time;durP1;ratioP1;P1;durP2;ratioP2;P2;SDS_P1;SDS_P2;PMS_P1;PMS_P2;Temp;Humidity;BMP_temperature;BMP_pressure;BME280_temperature;BME280_humidity;BME280_pressure;Samples;Min_cycle;Max_cycle;Signal;HPM_P1;HPM_P2
2021/10/09 00:02:04;;;;;;;34.13;19.70;;;;;;;;;;4975299;28;20460;-81
2021/10/09 00:04:31;;;;;;;33.80;20.40;;;;;;;;;;4975029;28;20472;-82
2021/10/09 00:06:58;;;;;;;30.27;17.07;;;;;;;;;;4975216;28;20471;-81
2021/10/09 00:09:27;;;;;;;32.77;20.27;;;;;;;;;;4975298;28;20531;-82
2021/10/09 00:11:54;;;;;;;31.57;18.77;;;;;;;;;;4955158;28;20480;-82
2021/10/09 00:14:21;;;;;;;32.20;19.27;;;;;;;;;;4954277;28;20470;-82
2021/10/09 00:16:49;;;;;;;36.00;22.43;;;;;;;;;;4972137;28;20457;-81
2021/10/09 00:19:18;;;;;;;34.33;18.23;;;;;;;;;;4973432;28;20460;-81
2021/10/09 00:21:45;;;;;;;28.77;18.40;;;;;;;;;;4973088;28;20466;-81
2021/10/09 00:24:13;;;;;;;30.00;17.43;;;;;;;;;;4962056;28;20575;-81
2021/10/09 00:26:40;;;;;;;33.70;19.10;;;;;;;;;;4970247;28;20451;-81
2021/10/09 00:29:08;;;;;;;30.47;17.77;;;;;;;;;;4974401;28;20491;-81
2021/10/09 00:31:35;;;;;;;30.63;18.50;;;;;;;;;;4970914;28;20461;-80
2021/10/09 00:34:03;;;;;;;29.60;17.80;;;;;;;;;;4955208;28;20480;-78
2021/10/09 00:36:31;;;;;;;32.97;19.23;;;;;;;;;;4959887;28;20722;-80
2021/10/09 00:38:58;;;;;;;32.87;19.03;;;;;;;;;;4956337;28;20461;-80
2021/10/09 00:41:26;;;;;;;35.40;17.60;;;;;;;;;;4971320;28;20459;-80
2021/10/09 00:43:53;;;;;;;34.23;19.20;;;;;;;;;;4974156;28;20467;-81
2021/10/09 00:46:20;;;;;;;30.17;17.43;;;;;;;;;;4973141;28;20471;-82
2021/10/09 00:48:47;;;;;;;32.40;18.20;;;;;;;;;;4973135;28;20494;-81
2021/10/09 00:51:15;;;;;;;32.17;18.93;;;;;;;;;;4971452;28;20460;-80
2021/10/09 00:53:46;;;;;;;33.00;18.27;;;;;;;;;;4967130;28;20542;-81
2021/10/09 00:56:17;;;;;;;34.10;20.70;;;;;;;;;;4978756;28;20443;-81
2021/10/09 00:58:45;;;;;;;31.83;18.93;;;;;;;;;;4978925;28;20470;-81
2021/10/09 01:01:12;;;;;;;32.40;19.37;;;;;;;;;;4959972;28;20467;-83
2021/10/09 01:03:39;;;;;;;34.70;20.30;;;;;;;;;;4966171;28;21094;-81
2021/10/09 01:06:07;;;;;;;36.03;19.90;;;;;;;;;;4964982;28;20459;-81
2021/10/09 01:08:34;;;;;;;33.73;18.57;;;;;;;;;;4964289;28;20479;-81
2021/10/09 01:11:03;;;;;;;31.87;18.20;;;;;;;;;;4976900;28;20455;-82
2021/10/09 01:13:30;;;;;;;33.70;19.03;;;;;;;;;;4976300;28;20463;-81
2021/10/09 01:15:57;;;;;;;36.13;20.50;;;;;;;;;;4976124;28;20551;-81
2021/10/09 01:18:24;;;;;;;37.30;19.90;;;;;;;;;;4976128;28;20456;-81
2021/10/09 01:20:54;;;;;;;37.30;20.77;;;;;;;;;;4966574;28;20531;-81
2021/10/09 01:23:22;;;;;;;36.80;18.77;;;;;;;;;;4962002;28;20469;-81
2021/10/09 01:25:50;;;;;;;35.80;20.30;;;;;;;;;;4976097;28;20487;-82
2021/10/09 01:28:17;;;;;;;35.60;20.97;;;;;;;;;;4975541;28;20465;-82
2021/10/09 01:30:44;;;;;;;33.20;20.20;;;;;;;;;;4976238;28;20498;-81
2021/10/09 01:33:11;;;;;;;38.37;22.10;;;;;;;;;;4971211;28;20467;-81
2021/10/09 01:35:49;;;;;;;34.90;20.60;;;;;;;;;;4965307;28;20472;-81
2021/10/09 01:38:18;;;;;;;33.30;19.93;;;;;;;;;;4976276;28;20451;-82
2021/10/09 01:40:45;;;;;;;34.13;20.60;;;;;;;;;;4975588;28;20479;-82
2021/10/09 01:43:13;;;;;;;34.23;19.97;;;;;;;;;;4976450;28;20451;-82
2021/10/09 01:45:42;;;;;;;34.53;22.40;;;;;;;;;;4985482;28;20474;-82
2021/10/09 01:48:10;;;;;;;35.93;22.67;;;;;;;;;;4974327;28;20455;-82
2021/10/09 01:50:37;;;;;;;33.17;21.17;;;;;;;;;;4967657;28;21013;-83
2021/10/09 01:53:07;;;;;;;40.90;21.80;;;;;;;;;;4976304;28;20459;-82
2021/10/09 01:55:36;;;;;;;42.00;25.30;;;;;;;;;;4973074;28;20474;-82
2021/10/09 01:58:04;;;;;;;40.03;24.07;;;;;;;;;;4976160;28;20460;-82
2021/10/09 02:00:31;;;;;;;36.60;22.47;;;;;;;;;;4975416;28;20451;-83
2021/10/09 02:03:02;;;;;;;37.20;23.23;;;;;;;;;;4973896;28;20463;-83
2021/10/09 02:05:30;;;;;;;41.77;23.30;;;;;;;;;;4976754;28;20674;-83
2021/10/09 02:07:57;;;;;;;41.73;23.27;;;;;;;;;;4975632;28;20467;-82
2021/10/09 02:10:24;;;;;;;38.70;22.20;;;;;;;;;;4976331;28;20484;-84
2021/10/09 02:12:54;;;;;;;42.83;24.77;;;;;;;;;;4976292;28;20843;-83
2021/10/09 02:15:24;;;;;;;37.37;22.13;;;;;;;;;;4970910;28;20491;-83
2021/10/09 02:25:59;;;;;;;42.67;25.93;;;;;;;;;;4934810;28;20980;-83
2021/10/09 02:28:27;;;;;;;48.63;27.93;;;;;;;;;;4956355;28;20900;-83
2021/10/09 02:30:55;;;;;;;42.57;24.40;;;;;;;;;;4974678;28;20487;-82
2021/10/09 02:33:22;;;;;;;41.47;22.80;;;;;;;;;;4974416;28;20462;-83
2021/10/09 02:35:50;;;;;;;40.73;23.57;;;;;;;;;;4975359;28;20488;-83
2021/10/09 02:38:18;;;;;;;44.80;23.80;;;;;;;;;;4975506;28;20467;-83
2021/10/09 02:40:45;;;;;;;38.50;23.57;;;;;;;;;;4975823;28;20545;-83
2021/10/09 02:43:15;;;;;;;41.90;25.17;;;;;;;;;;4975651;28;20462;-83
2021/10/09 02:45:43;;;;;;;39.10;24.60;;;;;;;;;;4975252;28;20984;-83
2021/10/09 02:48:11;;;;;;;38.53;22.00;;;;;;;;;;4972474;28;20470;-82
2021/10/09 02:50:39;;;;;;;41.03;24.97;;;;;;;;;;4980168;28;20518;-83
2021/10/09 02:53:06;;;;;;;37.10;22.73;;;;;;;;;;4977537;28;20454;-83
2021/10/09 02:55:33;;;;;;;38.10;22.33;;;;;;;;;;4977576;28;20488;-82
2021/10/09 02:58:00;;;;;;;39.93;23.27;;;;;;;;;;4977702;28;20835;-82
2021/10/09 03:00:27;;;;;;;41.60;23.07;;;;;;;;;;4976630;28;20477;-83
2021/10/09 03:02:56;;;;;;;37.60;22.30;;;;;;;;;;4977437;28;20455;-83
2021/10/09 03:05:23;;;;;;;42.63;24.10;;;;;;;;;;4964147;28;20491;-83
2021/10/09 03:07:51;;;;;;;43.00;24.83;;;;;;;;;;4972311;28;20499;-83
2021/10/09 03:10:18;;;;;;;46.90;26.50;;;;;;;;;;4976499;28;20489;-86
2021/10/09 03:12:45;;;;;;;44.97;27.37;;;;;;;;;;4976864;28;20458;-84
2021/10/09 03:15:13;;;;;;;44.13;26.30;;;;;;;;;;4975761;28;20478;-84
2021/10/09 03:17:41;;;;;;;47.83;27.57;;;;;;;;;;4975344;28;20558;-84
2021/10/09 03:20:11;;;;;;;44.80;25.33;;;;;;;;;;4974802;28;20545;-83
2021/10/09 03:22:38;;;;;;;40.43;24.80;;;;;;;;;;4974651;28;20462;-82
2021/10/09 03:25:06;;;;;;;44.27;27.60;;;;;;;;;;4975416;28;20574;-85
2021/10/09 03:27:33;;;;;;;43.40;27.07;;;;;;;;;;4976173;28;20462;-82
2021/10/09 03:30:00;;;;;;;43.13;26.33;;;;;;;;;;4976036;28;20577;-82
2021/10/09 03:32:27;;;;;;;45.37;27.17;;;;;;;;;;4976323;28;20449;-82
2021/10/09 03:34:54;;;;;;;42.13;26.17;;;;;;;;;;4975512;28;20851;-81
2021/10/09 03:37:23;;;;;;;38.97;24.20;;;;;;;;;;4974341;28;20467;-82
2021/10/09 03:39:51;;;;;;;42.97;25.33;;;;;;;;;;4975525;28;20454;-81
2021/10/09 03:42:21;;;;;;;47.00;27.33;;;;;;;;;;4975379;28;20557;-82
2021/10/09 03:44:53;;;;;;;44.10;26.47;;;;;;;;;;4975119;28;20509;-81
2021/10/09 03:47:23;;;;;;;43.80;26.50;;;;;;;;;;4975080;28;20478;-81
2021/10/09 03:49:53;;;;;;;45.00;26.57;;;;;;;;;;4975251;28;21144;-82
2021/10/09 03:52:34;;;;;;;40.23;24.00;;;;;;;;;;4975919;28;21152;-82
2021/10/09 03:55:01;;;;;;;42.37;24.53;;;;;;;;;;4973329;28;20479;-80
2021/10/09 03:57:28;;;;;;;45.23;24.60;;;;;;;;;;4981427;28;20456;-79
2021/10/09 03:59:55;;;;;;;46.93;27.90;;;;;;;;;;4981842;28;20944;-79
2021/10/09 04:02:22;;;;;;;42.47;25.50;;;;;;;;;;4982351;28;20451;-79
2021/10/09 04:04:50;;;;;;;46.83;25.13;;;;;;;;;;4982088;28;20485;-80
2021/10/09 04:07:17;;;;;;;43.67;25.67;;;;;;;;;;4982393;28;20832;-79
2021/10/09 04:09:45;;;;;;;42.13;25.43;;;;;;;;;;4979446;28;20460;-79
2021/10/09 04:12:12;;;;;;;39.17;22.93;;;;;;;;;;4982636;28;20450;-80
2021/10/09 04:14:40;;;;;;;42.70;24.07;;;;;;;;;;4982368;28;21030;-79
2021/10/09 04:17:07;;;;;;;43.40;24.80;;;;;;;;;;4982003;28;20501;-80
2021/10/09 04:19:34;;;;;;;43.20;24.80;;;;;;;;;;4982993;28;20451;-79
2021/10/09 04:22:01;;;;;;;42.43;24.87;;;;;;;;;;4982859;28;20546;-80
2021/10/09 04:27:01;;;;;;;40.97;23.27;;;;;;;;;;5012269;23;20486;-85
2021/10/09 04:29:28;;;;;;;43.77;23.10;;;;;;;;;;4999766;28;20464;-84
2021/10/09 04:31:56;;;;;;;43.63;24.23;;;;;;;;;;5003093;28;21038;-85
2021/10/09 04:34:23;;;;;;;40.63;23.67;;;;;;;;;;5003562;28;20452;-85
2021/10/09 04:36:51;;;;;;;44.60;24.20;;;;;;;;;;5002790;28;20478;-84
2021/10/09 04:39:20;;;;;;;42.30;24.40;;;;;;;;;;5003610;28;20453;-86
2021/10/09 04:41:47;;;;;;;42.53;23.67;;;;;;;;;;5003577;28;20474;-85
2021/10/09 04:44:15;;;;;;;42.67;24.50;;;;;;;;;;5002089;28;20452;-85
2021/10/09 04:46:43;;;;;;;44.47;24.93;;;;;;;;;;5002492;28;20483;-85
2021/10/09 04:49:10;;;;;;;45.03;24.53;;;;;;;;;;5003781;28;20454;-86
2021/10/09 04:51:37;;;;;;;44.47;25.00;;;;;;;;;;5003265;28;20488;-86
2021/10/09 04:54:04;;;;;;;52.30;25.27;;;;;;;;;;5004074;28;20453;-86
2021/10/09 04:56:31;;;;;;;40.63;22.90;;;;;;;;;;5004933;28;20548;-85
2021/10/09 04:58:58;;;;;;;46.10;25.07;;;;;;;;;;5014804;28;20457;-85
2021/10/09 05:01:27;;;;;;;42.23;24.33;;;;;;;;;;4988957;28;20459;-85
2021/10/09 05:03:54;;;;;;;43.83;25.13;;;;;;;;;;4978246;28;20457;-84
2021/10/09 05:06:21;;;;;;;45.10;25.50;;;;;;;;;;4991710;28;20492;-84
2021/10/09 05:08:48;;;;;;;20.00;8.10;;;;;;;;;;4997693;28;20461;-85
2021/10/09 05:11:18;;;;;;;27.20;14.13;;;;;;;;;;4996118;28;20492;-84
2021/10/09 05:13:45;;;;;;;37.63;19.40;;;;;;;;;;4996942;28;20454;-84
2021/10/09 05:16:12;;;;;;;35.83;19.20;;;;;;;;;;4991023;28;20484;-84
2021/10/09 05:18:41;;;;;;;36.80;19.30;;;;;;;;;;4997064;28;20454;-85
2021/10/09 05:21:08;;;;;;;36.87;20.70;;;;;;;;;;4996766;28;20454;-85
2021/10/09 05:23:36;;;;;;;34.60;18.13;;;;;;;;;;4997589;28;20454;-86
2021/10/09 05:26:04;;;;;;;35.97;18.73;;;;;;;;;;4996897;28;20491;-84
2021/10/09 05:28:38;;;;;;;35.77;19.67;;;;;;;;;;4996512;28;21232;-85
2021/10/09 05:31:08;;;;;;;32.50;18.97;;;;;;;;;;4996483;28;20527;-84
2021/10/09 05:33:39;;;;;;;33.67;19.00;;;;;;;;;;4984541;28;20455;-85
2021/10/09 05:36:08;;;;;;;37.97;20.83;;;;;;;;;;4989647;28;20491;-85
2021/10/09 05:38:35;;;;;;;37.87;20.30;;;;;;;;;;4996689;28;20454;-85
2021/10/09 05:41:02;;;;;;;34.80;19.73;;;;;;;;;;4998195;28;20528;-85
2021/10/09 05:43:30;;;;;;;36.77;19.70;;;;;;;;;;4996413;28;20459;-85
2021/10/09 05:45:58;;;;;;;40.20;20.50;;;;;;;;;;4995671;28;20969;-85
2021/10/09 05:48:25;;;;;;;37.47;21.87;;;;;;;;;;4996025;28;20510;-85
2021/10/09 05:50:58;;;;;;;37.23;21.10;;;;;;;;;;4985151;28;20540;-85
2021/10/09 05:53:52;;;;;;;38.20;21.60;;;;;;;;;;4996522;28;20438;-85
2021/10/09 05:56:30;;;;;;;38.23;22.63;;;;;;;;;;4995438;28;20545;-85
2021/10/09 05:59:09;;;;;;;37.67;21.07;;;;;;;;;;4995690;28;20458;-85
2021/10/09 06:32:27;;;;;;;45.77;23.20;;;;;;;;;;5000830;28;20591;-84
2021/10/09 06:43:48;;;;;;;45.73;24.97;;;;;;;;;;4988401;28;20854;-84
2021/10/09 07:00:20;;;;;;;47.83;27.97;;;;;;;;;;4985065;28;20942;-82
2021/10/09 07:02:47;;;;;;;43.60;26.50;;;;;;;;;;4979973;28;20461;-82
2021/10/09 07:05:15;;;;;;;43.00;25.93;;;;;;;;;;4993936;28;20557;-82
2021/10/09 07:07:44;;;;;;;46.97;26.17;;;;;;;;;;4993227;28;20498;-84
2021/10/09 07:10:11;;;;;;;44.40;25.03;;;;;;;;;;4995006;28;20457;-81
2021/10/09 07:12:38;;;;;;;43.30;26.13;;;;;;;;;;4995649;28;20452;-81
2021/10/09 07:15:08;;;;;;;47.20;27.77;;;;;;;;;;4996315;28;20473;-83
2021/10/09 07:17:37;;;;;;;43.60;26.23;;;;;;;;;;4993102;28;20447;-82
2021/10/09 07:20:06;;;;;;;42.17;24.70;;;;;;;;;;4985884;28;20543;-84
2021/10/09 07:22:33;;;;;;;49.90;28.93;;;;;;;;;;5005218;28;20449;-84
2021/10/09 07:25:01;;;;;;;42.67;26.37;;;;;;;;;;5018824;28;20517;-84
2021/10/09 07:27:28;;;;;;;44.47;27.17;;;;;;;;;;5019175;28;20457;-86
2021/10/09 07:29:55;;;;;;;51.00;27.90;;;;;;;;;;5017944;28;20496;-84
2021/10/09 07:32:23;;;;;;;43.33;26.50;;;;;;;;;;4996068;28;20485;-84
2021/10/09 07:34:51;;;;;;;45.90;27.20;;;;;;;;;;4995048;28;20553;-83
2021/10/09 07:37:18;;;;;;;42.43;24.93;;;;;;;;;;4994955;28;20461;-83
2021/10/09 07:39:45;;;;;;;46.50;25.27;;;;;;;;;;4994174;28;20464;-84
2021/10/09 07:42:13;;;;;;;49.00;28.00;;;;;;;;;;4994843;28;20450;-84
2021/10/09 07:44:40;;;;;;;43.10;24.20;;;;;;;;;;4993423;28;20461;-84
2021/10/09 07:47:08;;;;;;;45.17;25.97;;;;;;;;;;4994474;28;20449;-84
2021/10/09 07:49:35;;;;;;;40.73;24.07;;;;;;;;;;4995878;28;20464;-85
2021/10/09 07:52:04;;;;;;;42.80;23.83;;;;;;;;;;4994680;28;20566;-83
2021/10/09 07:54:31;;;;;;;48.43;29.20;;;;;;;;;;4995918;28;20460;-84
2021/10/09 07:56:58;;;;;;;39.43;23.77;;;;;;;;;;4995748;28;20485;-85
2021/10/09 07:59:26;;;;;;;39.73;22.70;;;;;;;;;;4988082;28;20534;-84
2021/10/09 08:01:53;;;;;;;40.80;22.87;;;;;;;;;;4985727;28;20454;-84
2021/10/09 08:04:20;;;;;;;36.60;21.50;;;;;;;;;;4996593;28;20521;-84
2021/10/09 08:06:47;;;;;;;39.67;23.70;;;;;;;;;;4996237;28;20482;-84
2021/10/09 08:09:16;;;;;;;38.30;21.17;;;;;;;;;;4995649;28;20458;-84
2021/10/09 08:11:43;;;;;;;37.37;22.70;;;;;;;;;;4995821;28;20577;-85
2021/10/09 08:14:10;;;;;;;38.70;22.20;;;;;;;;;;4996580;28;20990;-85
2021/10/09 08:16:37;;;;;;;39.70;24.47;;;;;;;;;;4997272;28;20856;-86
2021/10/09 08:19:05;;;;;;;40.20;23.50;;;;;;;;;;4995393;28;20471;-85
2021/10/09 08:21:37;;;;;;;38.93;22.93;;;;;;;;;;4999028;28;20867;-86
2021/10/09 08:24:09;;;;;;;36.07;21.07;;;;;;;;;;5000060;28;20458;-86
2021/10/09 08:40:19;;;;;;;37.17;21.67;;;;;;;;;;5001296;28;20450;-84
2021/10/09 08:42:48;;;;;;;40.03;20.67;;;;;;;;;;5003328;28;20458;-85
2021/10/09 08:45:15;;;;;;;36.87;20.00;;;;;;;;;;4996617;28;20557;-85
2021/10/09 08:47:43;;;;;;;33.93;19.73;;;;;;;;;;4998948;28;20896;-85
2021/10/09 08:50:12;;;;;;;34.73;19.40;;;;;;;;;;5003008;28;20458;-86
2021/10/09 08:52:39;;;;;;;32.50;19.43;;;;;;;;;;5000374;28;20486;-85
2021/10/09 08:55:19;;;;;;;36.80;20.70;;;;;;;;;;5003133;28;20484;-86
2021/10/09 08:57:48;;;;;;;33.80;20.13;;;;;;;;;;5013157;28;20442;-85
2021/10/09 09:00:18;;;;;;;36.67;21.60;;;;;;;;;;5008731;28;20455;-85
2021/10/09 09:02:59;;;;;;;34.57;20.90;;;;;;;;;;5005688;28;20456;-85
2021/10/09 09:05:33;;;;;;;34.97;21.10;;;;;;;;;;4993700;28;20482;-85
2021/10/09 09:08:19;;;;;;;34.23;19.10;;;;;;;;;;5003045;28;20445;-87
2021/10/09 09:27:40;;;;;;;30.80;17.73;;;;;;;;;;5003795;28;20449;-85
2021/10/09 09:30:41;;;;;;;26.90;14.80;;;;;;;;;;5007029;28;20456;-86
2021/10/09 09:36:24;;;;;;;29.27;14.40;;;;;;;;;;4945365;29;20465;-85
2021/10/09 09:39:03;;;;;;;24.17;15.30;;;;;;;;;;4993182;28;20457;-85
2021/10/09 09:41:30;;;;;;;22.03;14.13;;;;;;;;;;5002912;28;20898;-85
2021/10/09 09:43:58;;;;;;;25.97;14.30;;;;;;;;;;5006108;28;20484;-85
2021/10/09 09:46:27;;;;;;;24.77;14.47;;;;;;;;;;5006602;28;20474;-84
2021/10/09 09:48:54;;;;;;;24.03;13.90;;;;;;;;;;5006790;28;20450;-82
2021/10/09 09:51:22;;;;;;;26.03;14.27;;;;;;;;;;5001682;28;20490;-83
2021/10/09 09:53:50;;;;;;;23.10;13.50;;;;;;;;;;4984359;28;20455;-83
2021/10/09 09:56:18;;;;;;;27.87;13.70;;;;;;;;;;4980127;28;21035;-81
2021/10/09 09:58:47;;;;;;;28.90;14.47;;;;;;;;;;4987228;28;20841;-82
2021/10/09 10:01:14;;;;;;;25.70;14.10;;;;;;;;;;4996958;28;20448;-81
2021/10/09 10:03:45;;;;;;;26.27;14.00;;;;;;;;;;4995546;28;21001;-82
2021/10/09 10:06:12;;;;;;;23.10;12.70;;;;;;;;;;4995432;28;20854;-81
2021/10/09 10:08:41;;;;;;;27.10;13.23;;;;;;;;;;4995542;28;21010;-81
2021/10/09 10:11:09;;;;;;;22.20;12.13;;;;;;;;;;4995815;28;20541;-81
2021/10/09 10:13:36;;;;;;;24.57;12.20;;;;;;;;;;4993612;28;20510;-82
2021/10/09 10:16:06;;;;;;;24.63;13.43;;;;;;;;;;4996832;28;20476;-80
2021/10/09 10:18:50;;;;;;;23.77;12.57;;;;;;;;;;4995711;28;20458;-82
2021/10/09 10:21:18;;;;;;;21.53;11.67;;;;;;;;;;4996588;28;20450;-81
2021/10/09 10:23:50;;;;;;;22.40;11.90;;;;;;;;;;4996383;28;20460;-81
2021/10/09 10:26:24;;;;;;;20.80;12.10;;;;;;;;;;5013700;23;20495;-79
2021/10/09 10:29:21;;;;;;;24.37;13.40;;;;;;;;;;4979500;28;20523;-80
2021/10/09 10:32:03;;;;;;;24.10;12.97;;;;;;;;;;4991797;28;20482;-80
2021/10/09 10:34:31;;;;;;;25.00;11.87;;;;;;;;;;4986559;28;20451;-80
2021/10/09 10:36:58;;;;;;;21.67;11.40;;;;;;;;;;4968018;28;20471;-80
2021/10/09 10:39:38;;;;;;;25.27;13.60;;;;;;;;;;4963123;28;20463;-79
2021/10/09 10:42:08;;;;;;;20.77;12.10;;;;;;;;;;4958129;28;20451;-80
2021/10/09 10:44:47;;;;;;;21.70;11.70;;;;;;;;;;4958898;28;20456;-81
2021/10/09 10:47:33;;;;;;;20.93;11.33;;;;;;;;;;4966630;28;20484;-81
2021/10/09 10:50:08;;;;;;;21.30;12.10;;;;;;;;;;4971831;28;20457;-81
2021/10/09 10:52:53;;;;;;;21.23;11.80;;;;;;;;;;4976549;28;20483;-82
2021/10/09 10:55:20;;;;;;;22.90;12.20;;;;;;;;;;4961337;28;20881;-81
2021/10/09 10:58:02;;;;;;;24.30;11.47;;;;;;;;;;4958129;28;20467;-82
2021/10/09 11:00:29;;;;;;;22.27;11.90;;;;;;;;;;4957250;28;20456;-81
2021/10/09 11:02:57;;;;;;;23.53;11.93;;;;;;;;;;4959186;28;20457;-82
2021/10/09 11:05:25;;;;;;;18.10;9.70;;;;;;;;;;4958998;28;20459;-82
2021/10/09 11:07:52;;;;;;;20.53;11.33;;;;;;;;;;4958555;28;20548;-82
2021/10/09 11:10:21;;;;;;;21.33;12.00;;;;;;;;;;4958458;28;20503;-81
2021/10/09 11:12:50;;;;;;;21.10;12.47;;;;;;;;;;4974108;28;20578;-82
2021/10/09 11:15:22;;;;;;;20.83;12.50;;;;;;;;;;4966863;28;20953;-82
2021/10/09 11:17:51;;;;;;;20.40;10.93;;;;;;;;;;4955457;29;20511;-81
2021/10/09 11:20:22;;;;;;;19.37;10.93;;;;;;;;;;4956914;28;20539;-82
2021/10/09 11:22:51;;;;;;;20.13;11.60;;;;;;;;;;4956625;28;20461;-82
2021/10/09 11:25:23;;;;;;;21.43;9.90;;;;;;;;;;4956946;28;20495;-82
2021/10/09 11:27:51;;;;;;;21.23;12.10;;;;;;;;;;4957028;28;20441;-83
2021/10/09 11:30:18;;;;;;;21.20;12.27;;;;;;;;;;4956896;28;20456;-83
2021/10/09 11:32:46;;;;;;;22.80;13.27;;;;;;;;;;4956747;28;21024;-83
2021/10/09 11:35:14;;;;;;;22.10;12.47;;;;;;;;;;4956396;28;20453;-83
2021/10/09 11:37:49;;;;;;;19.70;12.03;;;;;;;;;;4955849;28;20976;-82
2021/10/09 11:40:28;;;;;;;22.87;13.53;;;;;;;;;;4956998;28;20487;-82
2021/10/09 11:42:58;;;;;;;21.60;12.53;;;;;;;;;;4955209;28;20448;-81
2021/10/09 11:45:30;;;;;;;21.10;12.37;;;;;;;;;;4954624;28;20828;-82
2021/10/09 11:56:12;;;;;;;18.10;11.97;;;;;;;;;;4935747;29;21096;-82
2021/10/09 11:58:47;;;;;;;19.80;11.93;;;;;;;;;;4938230;29;20457;-79
2021/10/09 12:01:24;;;;;;;21.30;13.60;;;;;;;;;;4950708;28;20463;-83
2021/10/09 12:03:52;;;;;;;22.87;10.73;;;;;;;;;;4956000;28;20448;-82
2021/10/09 12:06:19;;;;;;;19.73;10.60;;;;;;;;;;4954717;28;21005;-82
2021/10/09 12:08:50;;;;;;;21.40;12.50;;;;;;;;;;4955049;28;20551;-82
2021/10/09 12:11:24;;;;;;;20.20;11.90;;;;;;;;;;4955609;28;20458;-83
2021/10/09 12:13:55;;;;;;;22.20;11.23;;;;;;;;;;4955183;28;20854;-81
2021/10/09 12:16:24;;;;;;;20.93;11.50;;;;;;;;;;4954403;28;20482;-82
2021/10/09 12:18:54;;;;;;;18.67;11.90;;;;;;;;;;4955308;28;20455;-82
2021/10/09 12:21:22;;;;;;;20.70;11.23;;;;;;;;;;4956193;28;20453;-82
2021/10/09 12:23:49;;;;;;;18.53;10.30;;;;;;;;;;4956141;28;20463;-82
2021/10/09 12:26:17;;;;;;;20.77;12.33;;;;;;;;;;4954670;28;20572;-82
2021/10/09 12:29:04;;;;;;;21.10;11.20;;;;;;;;;;4956616;28;20660;-84
2021/10/09 12:31:32;;;;;;;19.47;11.30;;;;;;;;;;4963541;28;20457;-82
2021/10/09 12:33:59;;;;;;;20.80;12.30;;;;;;;;;;4955698;28;20866;-81
2021/10/09 12:36:37;;;;;;;18.57;10.83;;;;;;;;;;4956058;28;20978;-83
2021/10/09 12:39:20;;;;;;;21.47;12.47;;;;;;;;;;4958323;28;20860;-82
2021/10/09 12:41:47;;;;;;;18.63;10.30;;;;;;;;;;4961589;28;20474;-82
2021/10/09 12:44:16;;;;;;;19.20;11.87;;;;;;;;;;4966172;28;20444;-82
2021/10/09 12:46:43;;;;;;;19.33;9.90;;;;;;;;;;4954995;28;20478;-80
2021/10/09 12:49:10;;;;;;;21.13;12.10;;;;;;;;;;4956458;28;20838;-81
2021/10/09 12:51:37;;;;;;;20.00;11.73;;;;;;;;;;4959570;28;20456;-82
2021/10/09 12:54:07;;;;;;;23.13;12.70;;;;;;;;;;4959735;28;20494;-82
2021/10/09 12:56:34;;;;;;;21.60;12.00;;;;;;;;;;4958074;28;20571;-83
2021/10/09 12:59:02;;;;;;;20.13;12.80;;;;;;;;;;4959267;28;20798;-83
2021/10/09 13:01:30;;;;;;;22.80;11.30;;;;;;;;;;4959105;28;20459;-83
2021/10/09 13:03:58;;;;;;;20.77;12.27;;;;;;;;;;4959918;28;20453;-83
2021/10/09 13:06:25;;;;;;;19.03;12.23;;;;;;;;;;4978938;28;20477;-81
2021/10/09 13:08:52;;;;;;;23.90;11.63;;;;;;;;;;4979603;28;20455;-82
2021/10/09 13:11:23;;;;;;;21.13;12.30;;;;;;;;;;4959825;28;20467;-83
2021/10/09 13:13:51;;;;;;;21.20;12.70;;;;;;;;;;4959401;28;20484;-80
2021/10/09 13:16:19;;;;;;;24.30;11.90;;;;;;;;;;4958477;28;20480;-83
2021/10/09 13:18:47;;;;;;;20.80;11.50;;;;;;;;;;4960010;28;20452;-83
2021/10/09 13:21:14;;;;;;;20.47;12.10;;;;;;;;;;4959338;28;20460;-84
2021/10/09 13:23:42;;;;;;;17.90;10.93;;;;;;;;;;4961221;28;20463;-82
2021/10/09 13:26:09;;;;;;;18.33;10.33;;;;;;;;;;4966450;28;20587;-83
2021/10/09 13:28:37;;;;;;;19.57;10.93;;;;;;;;;;4968849;28;20559;-82
2021/10/09 13:31:05;;;;;;;19.47;10.73;;;;;;;;;;4970614;28;20452;-83
2021/10/09 13:33:32;;;;;;;17.87;10.67;;;;;;;;;;4972344;28;20480;-82
2021/10/09 13:36:00;;;;;;;17.13;10.37;;;;;;;;;;4973079;28;20479;-84
2021/10/09 13:38:31;;;;;;;21.20;10.40;;;;;;;;;;4969827;28;20464;-81
2021/10/09 13:40:58;;;;;;;17.63;9.37;;;;;;;;;;4973558;28;20453;-83
2021/10/09 13:43:26;;;;;;;21.00;11.40;;;;;;;;;;4978338;28;20457;-85
2021/10/09 13:45:53;;;;;;;17.63;10.87;;;;;;;;;;4974225;28;20480;-84
2021/10/09 13:48:20;;;;;;;17.77;10.77;;;;;;;;;;4973951;29;20472;-85
2021/10/09 13:50:50;;;;;;;19.03;10.07;;;;;;;;;;4975318;28;20453;-84
2021/10/09 13:53:19;;;;;;;21.23;10.13;;;;;;;;;;4962712;28;21019;-84
2021/10/09 13:55:46;;;;;;;16.67;8.80;;;;;;;;;;4961585;28;20567;-85
2021/10/09 13:58:15;;;;;;;20.57;9.30;;;;;;;;;;4961069;28;20456;-84
2021/10/09 14:00:43;;;;;;;17.47;9.47;;;;;;;;;;4959949;28;20475;-85
2021/10/09 14:03:10;;;;;;;18.43;9.83;;;;;;;;;;4959843;28;20471;-83
2021/10/09 14:05:38;;;;;;;19.97;9.53;;;;;;;;;;4959889;28;20527;-81
2021/10/09 14:08:05;;;;;;;20.63;10.33;;;;;;;;;;4959995;28;20464;-82
2021/10/09 14:10:34;;;;;;;21.37;10.40;;;;;;;;;;4960499;28;20957;-83
2021/10/09 14:13:03;;;;;;;20.00;9.83;;;;;;;;;;4959664;28;20484;-84
2021/10/09 14:15:30;;;;;;;20.27;11.43;;;;;;;;;;4962018;28;20477;-83
2021/10/09 14:17:57;;;;;;;20.30;10.20;;;;;;;;;;4966038;28;20853;-84
2021/10/09 14:20:25;;;;;;;16.83;9.53;;;;;;;;;;4959260;28;20965;-84
2021/10/09 14:22:52;;;;;;;23.67;10.87;;;;;;;;;;4958989;28;20448;-84
2021/10/09 14:25:19;;;;;;;19.57;10.40;;;;;;;;;;4960683;28;20492;-82
2021/10/09 14:27:47;;;;;;;22.80;11.10;;;;;;;;;;4977720;28;20448;-87
2021/10/09 14:30:15;;;;;;;16.43;8.80;;;;;;;;;;4972698;28;20999;-82
2021/10/09 14:32:42;;;;;;;19.20;9.63;;;;;;;;;;4965006;28;20483;-84
2021/10/09 14:35:10;;;;;;;22.77;9.13;;;;;;;;;;4963474;28;20948;-85
2021/10/09 14:37:37;;;;;;;21.33;10.30;;;;;;;;;;4959375;28;20539;-85
2021/10/09 14:40:05;;;;;;;19.67;9.60;;;;;;;;;;4959852;28;20450;-83
2021/10/09 14:42:32;;;;;;;17.90;8.90;;;;;;;;;;4976051;28;20831;-84
2021/10/09 14:45:00;;;;;;;18.80;8.40;;;;;;;;;;4961241;28;20973;-84
2021/10/09 14:47:41;;;;;;;20.20;9.60;;;;;;;;;;4967498;28;20498;-83
2021/10/09 14:50:21;;;;;;;23.20;9.83;;;;;;;;;;4971356;28;20519;-86
2021/10/09 14:53:01;;;;;;;18.17;9.17;;;;;;;;;;4967685;28;20835;-84
2021/10/09 14:55:46;;;;;;;18.70;9.03;;;;;;;;;;4976586;28;20454;-82
2021/10/09 15:18:17;;;;;;;19.53;8.80;;;;;;;;;;4962118;29;20428;-83
2021/10/09 15:20:45;;;;;;;18.43;7.10;;;;;;;;;;4972349;28;20453;-84
2021/10/09 15:23:12;;;;;;;18.43;8.20;;;;;;;;;;4965802;28;20446;-85
2021/10/09 15:25:39;;;;;;;18.80;8.70;;;;;;;;;;4961202;28;20476;-85
2021/10/09 15:28:06;;;;;;;21.27;9.10;;;;;;;;;;4963234;28;20465;-83
2021/10/09 15:30:33;;;;;;;20.23;8.10;;;;;;;;;;4963732;28;20450;-85
2021/10/09 15:33:03;;;;;;;19.47;8.33;;;;;;;;;;4962782;28;20575;-84
2021/10/09 15:35:31;;;;;;;19.37;8.87;;;;;;;;;;4960938;28;20512;-84
2021/10/09 15:37:58;;;;;;;25.73;9.43;;;;;;;;;;4961264;28;20458;-84
2021/10/09 15:40:26;;;;;;;19.33;7.97;;;;;;;;;;4960674;28;20459;-83
2021/10/09 15:42:55;;;;;;;23.07;8.70;;;;;;;;;;4960604;28;20454;-84
2021/10/09 15:45:23;;;;;;;19.20;7.93;;;;;;;;;;4959562;28;20913;-84
2021/10/09 15:47:51;;;;;;;23.17;8.43;;;;;;;;;;4959910;28;20995;-84
2021/10/09 15:50:20;;;;;;;20.20;8.00;;;;;;;;;;4960137;28;20443;-84
2021/10/09 15:52:47;;;;;;;22.27;8.60;;;;;;;;;;4960894;28;20818;-84
2021/10/09 15:55:14;;;;;;;20.47;8.60;;;;;;;;;;4960542;28;20859;-84
2021/10/09 15:57:42;;;;;;;20.87;8.00;;;;;;;;;;4959337;28;20459;-84
2021/10/09 16:00:10;;;;;;;19.50;9.13;;;;;;;;;;4959899;28;20458;-85
2021/10/09 16:02:37;;;;;;;19.53;7.97;;;;;;;;;;4959662;28;20462;-85
2021/10/09 16:05:05;;;;;;;22.47;8.43;;;;;;;;;;4960370;28;20460;-84
2021/10/09 16:07:34;;;;;;;22.07;9.00;;;;;;;;;;4960254;28;20852;-84
2021/10/09 16:10:01;;;;;;;20.27;7.20;;;;;;;;;;4960111;28;20456;-84
2021/10/09 16:12:28;;;;;;;22.77;8.63;;;;;;;;;;4958853;28;20463;-83
2021/10/09 16:14:55;;;;;;;22.97;8.87;;;;;;;;;;4959159;28;20573;-85
2021/10/09 16:17:23;;;;;;;18.33;7.80;;;;;;;;;;4959579;28;20459;-84
2021/10/09 16:19:50;;;;;;;21.93;8.80;;;;;;;;;;4960180;28;20462;-84
2021/10/09 16:22:17;;;;;;;20.17;8.53;;;;;;;;;;4958823;28;20457;-85
2021/10/09 16:24:46;;;;;;;18.07;8.50;;;;;;;;;;4960802;28;20466;-84
2021/10/09 16:27:13;;;;;;;19.03;8.40;;;;;;;;;;5025677;23;20510;-80
2021/10/09 16:29:41;;;;;;;18.67;8.77;;;;;;;;;;5045025;28;20455;-81
2021/10/09 16:32:08;;;;;;;23.00;9.53;;;;;;;;;;5045457;28;20456;-81
2021/10/09 16:34:35;;;;;;;21.47;9.60;;;;;;;;;;5042513;28;20493;-81
2021/10/09 16:37:03;;;;;;;19.30;9.80;;;;;;;;;;5036302;28;20486;-81